Time;durP1;ratioP1;P1;durP2;ratioP2;P2;SDS_P1;SDS_P2;PMS_P1;PMS_P2;Temp;Humidity;BMP_temperature;BMP_pressure;BME280_temperature;BME280_humidity;BME280_pressure;Samples;Min_cycle;Max_cycle;Signal;HPM_P1;HPM_P2
2022/01/04 00:01:51;;;;;;;5.70;2.00;;;7.20;99.90;;;;;;5034465;28;20273;-94
2022/01/04 00:04:17;;;;;;;4.70;2.20;;;7.10;99.90;;;;;;5034911;28;20186;-93
2022/01/04 00:06:45;;;;;;;3.83;2.10;;;7.10;99.90;;;;;;5034296;28;20491;-94
2022/01/04 00:09:11;;;;;;;4.37;1.80;;;7.10;99.90;;;;;;5034363;28;20178;-94
2022/01/04 00:14:15;;;;;;;2.70;1.90;;;7.10;99.90;;;;;;5035647;28;20643;-94
2022/01/04 00:16:40;;;;;;;5.13;1.80;;;7.10;99.90;;;;;;5033892;28;20190;-93
2022/01/04 00:19:06;;;;;;;4.60;2.20;;;7.10;99.90;;;;;;5034388;28;20219;-94
2022/01/04 00:21:32;;;;;;;4.30;1.90;;;7.20;99.90;;;;;;5034423;28;20609;-94
2022/01/04 00:23:58;;;;;;;3.30;2.03;;;7.20;99.90;;;;;;5034330;28;20222;-94
2022/01/04 00:26:24;;;;;;;9.63;2.17;;;7.10;99.90;;;;;;5034134;28;20178;-95
2022/01/04 00:28:50;;;;;;;4.23;1.93;;;7.10;99.90;;;;;;5034304;28;20236;-93
2022/01/04 00:31:16;;;;;;;1.90;1.70;;;7.20;99.90;;;;;;5033843;28;20202;-94
2022/01/04 00:33:41;;;;;;;5.83;2.33;;;7.20;99.90;;;;;;5034175;28;20185;-94
2022/01/04 00:36:07;;;;;;;2.50;1.80;;;7.20;99.90;;;;;;5034197;28;20178;-94
2022/01/04 00:38:33;;;;;;;2.47;1.70;;;7.20;99.90;;;;;;5034121;28;20671;-94
2022/01/04 00:40:59;;;;;;;3.77;2.00;;;7.20;99.90;;;;;;5034003;28;20277;-93
2022/01/04 00:43:24;;;;;;;2.60;1.90;;;7.20;99.90;;;;;;5034811;28;20265;-94
2022/01/04 00:45:52;;;;;;;5.03;1.80;;;7.10;99.90;;;;;;5034127;28;20684;-94
2022/01/04 00:50:45;;;;;;;3.87;2.00;;;7.20;99.90;;;;;;5034908;28;20226;-93
2022/01/04 00:53:10;;;;;;;2.77;2.00;;;7.20;99.90;;;;;;5034168;28;20175;-93
2022/01/04 00:55:36;;;;;;;5.80;2.20;;;7.20;99.90;;;;;;5033794;28;20181;-94
2022/01/04 00:58:03;;;;;;;3.63;2.20;;;7.20;99.90;;;;;;5034280;28;20498;-93
2022/01/04 01:00:29;;;;;;;5.17;2.00;;;7.20;99.90;;;;;;5034046;28;20602;-93
2022/01/04 01:02:55;;;;;;;4.70;2.10;;;7.20;99.90;;;;;;5034073;28;20186;-92
2022/01/04 01:05:25;;;;;;;4.57;2.30;;;7.20;99.90;;;;;;5033719;28;20182;-93
2022/01/04 01:07:55;;;;;;;5.17;2.73;;;7.20;99.90;;;;;;5033390;28;20190;-93
2022/01/04 01:10:47;;;;;;;2.70;2.10;;;7.20;99.90;;;;;;5033532;28;20245;-94
2022/01/04 01:13:14;;;;;;;3.97;2.57;;;7.20;99.90;;;;;;5033969;28;20265;-94
2022/01/04 01:15:41;;;;;;;5.27;2.43;;;7.20;99.90;;;;;;5033234;28;20213;-93
2022/01/04 01:18:08;;;;;;;4.07;2.67;;;7.20;99.90;;;;;;5033715;28;20190;-93
2022/01/04 01:20:34;;;;;;;3.57;2.37;;;7.30;99.90;;;;;;5033584;28;20187;-94
2022/01/04 01:22:59;;;;;;;3.43;2.93;;;7.30;99.90;;;;;;5033787;28;20673;-94
2022/01/04 01:25:25;;;;;;;8.97;2.90;;;7.30;99.90;;;;;;5033514;28;20190;-94
2022/01/04 01:27:51;;;;;;;7.00;3.00;;;7.20;99.90;;;;;;5034267;28;20178;-94
2022/01/04 01:30:17;;;;;;;3.43;2.70;;;7.20;99.90;;;;;;5034124;28;20214;-93
2022/01/04 01:32:44;;;;;;;4.43;3.07;;;7.20;99.90;;;;;;5033504;28;20744;-92
2022/01/04 01:35:10;;;;;;;4.67;3.30;;;7.20;99.90;;;;;;5033656;28;20202;-94
2022/01/04 01:37:36;;;;;;;4.27;3.07;;;7.10;99.90;;;;;;5033834;28;20186;-94
2022/01/04 01:40:04;;;;;;;5.93;3.10;;;7.10;99.90;;;;;;5034019;28;20261;-93
2022/01/04 01:42:29;;;;;;;7.57;3.10;;;7.10;99.90;;;;;;5032936;28;20189;-93
2022/01/04 01:44:55;;;;;;;6.17;3.47;;;7.10;99.90;;;;;;5033166;28;20178;-93
2022/01/04 01:47:23;;;;;;;4.97;3.47;;;7.10;99.90;;;;;;5033635;28;20193;-93
2022/01/04 01:49:49;;;;;;;5.27;3.67;;;7.10;99.90;;;;;;5033404;28;20234;-92
2022/01/04 01:52:16;;;;;;;5.23;3.17;;;7.10;99.90;;;;;;5033649;28;20190;-93
2022/01/04 01:54:42;;;;;;;4.57;3.17;;;7.10;99.90;;;;;;5033857;28;20175;-93
2022/01/04 01:57:07;;;;;;;7.67;3.50;;;7.10;99.90;;;;;;5033644;28;20178;-93
2022/01/04 01:59:33;;;;;;;4.57;3.50;;;7.10;99.90;;;;;;5037363;28;20209;-94
2022/01/04 02:01:59;;;;;;;5.57;3.87;;;7.00;99.90;;;;;;5036914;28;20183;-94
2022/01/04 02:04:25;;;;;;;5.53;3.73;;;7.00;99.90;;;;;;5037261;28;20273;-94
2022/01/04 02:06:50;;;;;;;4.33;3.17;;;7.00;99.90;;;;;;5036646;28;20184;-93
2022/01/04 02:09:16;;;;;;;5.67;3.47;;;7.00;99.90;;;;;;5036836;28;20177;-92
2022/01/04 02:11:43;;;;;;;6.70;3.57;;;7.10;99.90;;;;;;5036934;28;20210;-93
2022/01/04 02:14:09;;;;;;;5.27;3.43;;;7.10;99.90;;;;;;5036901;28;20186;-93
2022/01/04 02:16:34;;;;;;;8.13;3.90;;;7.10;99.90;;;;;;5036415;28;20178;-93
2022/01/04 02:19:06;;;;;;;4.80;3.40;;;7.10;99.90;;;;;;5036798;28;20186;-92
2022/01/04 02:21:34;;;;;;;4.93;3.73;;;7.10;99.90;;;;;;5036361;28;20523;-94
2022/01/04 02:24:00;;;;;;;6.97;3.50;;;7.10;99.90;;;;;;5036759;28;20175;-92
2022/01/04 02:26:29;;;;;;;6.40;3.57;;;7.10;99.90;;;;;;5036252;28;20178;-93
2022/01/04 02:28:55;;;;;;;5.17;3.43;;;7.00;99.90;;;;;;5036264;28;20233;-93
2022/01/04 02:31:20;;;;;;;6.50;3.63;;;7.00;99.90;;;;;;5036059;28;20214;-94
2022/01/04 02:33:46;;;;;;;4.17;3.50;;;7.00;99.90;;;;;;5036555;28;20212;-93
2022/01/04 02:36:12;;;;;;;6.90;4.00;;;6.90;99.90;;;;;;5036179;28;20186;-94
2022/01/04 02:38:38;;;;;;;7.67;3.90;;;6.90;99.90;;;;;;5036496;28;20179;-94
2022/01/04 02:41:04;;;;;;;4.93;3.50;;;6.90;99.90;;;;;;5035784;28;20186;-92
2022/01/04 02:43:30;;;;;;;5.37;3.40;;;6.90;99.90;;;;;;5036207;28;20178;-93
2022/01/04 02:45:56;;;;;;;5.47;3.73;;;6.90;99.90;;;;;;5035733;28;20633;-93
2022/01/04 02:48:22;;;;;;;7.10;3.80;;;6.90;99.90;;;;;;5035947;28;20191;-93
2022/01/04 02:50:50;;;;;;;6.37;3.53;;;6.90;99.90;;;;;;5035943;28;20241;-94
2022/01/04 02:53:16;;;;;;;6.83;3.23;;;6.90;99.90;;;;;;5036329;28;20282;-94
2022/01/04 02:55:42;;;;;;;5.30;3.37;;;6.80;99.90;;;;;;5035786;28;20213;-93
2022/01/04 02:58:08;;;;;;;8.30;3.90;;;6.80;99.90;;;;;;5035552;28;20216;-94
2022/01/04 03:00:34;;;;;;;6.03;3.30;;;6.80;99.90;;;;;;5035769;28;20198;-92
2022/01/04 03:03:00;;;;;;;5.87;3.50;;;6.80;99.90;;;;;;5035745;28;20516;-93
2022/01/04 03:05:26;;;;;;;5.10;3.60;;;6.80;99.90;;;;;;5061122;28;20625;-93
2022/01/04 03:07:52;;;;;;;6.57;3.57;;;6.80;99.90;;;;;;5015963;28;20171;-93
2022/01/04 03:10:18;;;;;;;8.53;3.60;;;6.80;99.90;;;;;;5015916;28;20591;-94
2022/01/04 03:12:44;;;;;;;5.13;3.60;;;6.80;99.90;;;;;;5016266;28;20195;-93
2022/01/04 03:15:12;;;;;;;8.40;3.83;;;6.70;99.90;;;;;;5015530;28;20175;-93
2022/01/04 03:17:38;;;;;;;6.37;3.40;;;6.70;99.90;;;;;;5026182;28;20190;-93
2022/01/04 03:20:05;;;;;;;9.97;3.33;;;6.70;99.90;;;;;;5036736;28;20183;-93
2022/01/04 03:22:31;;;;;;;6.27;3.00;;;6.70;99.90;;;;;;5035616;28;20563;-94
2022/01/04 03:24:56;;;;;;;7.43;3.30;;;6.70;99.90;;;;;;5035491;28;20184;-93
2022/01/04 03:27:22;;;;;;;7.07;3.23;;;6.80;99.90;;;;;;5035157;28;20326;-94
2022/01/04 03:29:48;;;;;;;7.23;3.40;;;6.70;99.90;;;;;;5035462;28;20197;-93
2022/01/04 03:32:13;;;;;;;11.80;3.60;;;6.70;99.90;;;;;;5035096;28;20273;-93
2022/01/04 03:34:39;;;;;;;7.77;3.20;;;6.70;99.90;;;;;;5035197;28;20605;-92
2022/01/04 03:37:05;;;;;;;5.37;3.10;;;6.80;99.90;;;;;;5035148;28;20521;-94
2022/01/04 03:39:31;;;;;;;4.93;3.00;;;6.80;99.90;;;;;;5035362;28;20202;-93
2022/01/04 03:41:56;;;;;;;5.43;3.17;;;6.70;99.90;;;;;;5035044;28;20175;-95
2022/01/04 03:44:22;;;;;;;5.73;3.17;;;6.80;99.90;;;;;;5034974;28;20181;-93
2022/01/04 03:46:50;;;;;;;6.83;3.40;;;6.80;99.90;;;;;;5034233;28;20183;-95
2022/01/04 03:49:15;;;;;;;10.30;3.60;;;6.80;99.90;;;;;;5034619;28;20269;-94
2022/01/04 03:51:41;;;;;;;7.63;3.27;;;6.80;99.90;;;;;;5501604;22;20346;-93
2022/01/04 03:54:41;;;;;;;7.03;3.33;;;6.80;99.90;;;;;;5030981;28;20171;-95
2022/01/04 03:57:14;;;;;;;6.57;3.60;;;6.80;99.90;;;;;;5014108;28;20607;-94
2022/01/04 03:59:44;;;;;;;4.47;3.50;;;6.90;99.90;;;;;;5014830;28;20171;-94
2022/01/04 04:02:50;;;;;;;11.20;3.23;;;6.90;99.90;;;;;;5014078;28;20649;-93
2022/01/04 04:05:18;;;;;;;6.03;3.33;;;6.80;99.90;;;;;;5014483;28;20218;-94
2022/01/04 04:07:45;;;;;;;4.60;2.77;;;6.90;99.90;;;;;;5014475;28;20195;-93
2022/01/04 04:10:32;;;;;;;4.63;2.93;;;6.90;99.90;;;;;;5014255;28;20217;-94
2022/01/04 04:13:03;;;;;;;6.57;2.83;;;6.90;99.90;;;;;;5014498;28;20524;-93
2022/01/04 04:15:50;;;;;;;7.73;3.20;;;6.90;99.90;;;;;;5014777;28;20178;-95
2022/01/04 04:18:17;;;;;;;7.33;3.37;;;7.00;99.90;;;;;;5014253;28;20233;-96
2022/01/04 04:20:49;;;;;;;9.80;3.13;;;7.00;99.90;;;;;;5013611;28;20265;-96
2022/01/04 04:23:15;;;;;;;4.43;2.97;;;7.00;99.90;;;;;;5014800;28;20171;-93
2022/01/04 04:25:46;;;;;;;6.37;3.23;;;7.00;99.90;;;;;;5014368;28;20174;-95
2022/01/04 04:28:14;;;;;;;9.20;3.00;;;7.00;99.90;;;;;;5014277;28;20210;-93
2022/01/04 04:30:46;;;;;;;5.43;3.27;;;7.00;99.90;;;;;;5013800;28;20198;-94
2022/01/04 04:33:23;;;;;;;5.20;2.77;;;7.00;99.90;;;;;;5013850;28;20187;-94
2022/01/04 04:35:49;;;;;;;5.50;2.90;;;7.00;99.90;;;;;;5014530;28;20173;-95
2022/01/04 04:38:21;;;;;;;6.87;2.70;;;7.00;99.90;;;;;;5014292;28;20198;-94
2022/01/04 04:40:48;;;;;;;5.33;2.60;;;7.00;99.90;;;;;;5013979;28;20170;-94
2022/01/04 04:43:20;;;;;;;5.30;2.60;;;6.90;99.90;;;;;;5013976;28;20175;-95
2022/01/04 04:45:49;;;;;;;5.30;2.77;;;7.00;99.90;;;;;;5013652;28;20254;-95
2022/01/04 04:48:15;;;;;;;7.07;2.80;;;7.00;99.90;;;;;;5013780;28;20202;-95
2022/01/04 04:50:49;;;;;;;6.20;3.03;;;7.00;99.90;;;;;;5014371;28;20268;-95
2022/01/04 04:53:22;;;;;;;3.50;2.80;;;7.00;99.90;;;;;;5013792;28;20226;-95
2022/01/04 04:55:49;;;;;;;7.10;2.77;;;7.00;99.90;;;;;;5013790;28;20168;-95
2022/01/04 04:58:19;;;;;;;5.60;2.70;;;7.00;99.90;;;;;;5013635;28;20199;-94
2022/01/04 05:00:45;;;;;;;4.80;2.83;;;7.00;99.90;;;;;;5013783;28;20214;-95
2022/01/04 05:03:28;;;;;;;4.93;2.40;;;7.00;99.90;;;;;;5013294;28;20207;-94
2022/01/04 05:06:10;;;;;;;4.30;2.47;;;7.00;99.90;;;;;;5013660;28;20172;-95
2022/01/04 05:09:08;;;;;;;4.50;2.57;;;7.00;99.90;;;;;;5013682;28;20198;-94
2022/01/04 05:11:35;;;;;;;4.17;2.23;;;7.00;99.90;;;;;;5013256;28;20579;-94
2022/01/04 05:14:06;;;;;;;7.73;3.00;;;6.90;99.90;;;;;;5013285;28;20164;-94
2022/01/04 05:16:31;;;;;;;9.47;3.00;;;6.90;99.90;;;;;;5013616;28;20206;-94
2022/01/04 05:19:10;;;;;;;6.67;2.87;;;6.90;99.90;;;;;;5013463;28;20175;-93
2022/01/04 05:21:36;;;;;;;4.80;2.30;;;6.90;99.90;;;;;;5013397;28;20167;-94
2022/01/04 05:24:07;;;;;;;4.63;3.00;;;6.90;99.90;;;;;;5013591;28;20190;-94
2022/01/04 05:26:40;;;;;;;6.93;2.40;;;6.80;99.90;;;;;;5013367;28;20195;-95
2022/01/04 05:29:11;;;;;;;4.10;2.57;;;6.80;99.90;;;;;;5013255;28;20255;-93
2022/01/04 05:31:41;;;;;;;4.30;2.63;;;6.80;99.90;;;;;;5013296;28;20191;-95
2022/01/04 05:34:09;;;;;;;4.60;2.40;;;6.80;99.90;;;;;;5016879;28;20159;-93
2022/01/04 05:36:37;;;;;;;4.10;2.40;;;6.80;99.90;;;;;;5017441;28;20195;-94
2022/01/04 05:39:19;;;;;;;3.77;2.47;;;6.80;99.90;;;;;;5017668;28;20170;-95
2022/01/04 05:41:49;;;;;;;5.30;2.97;;;6.80;99.90;;;;;;5017172;28;20168;-94
2022/01/04 05:44:38;;;;;;;3.63;2.57;;;6.80;99.90;;;;;;5016969;28;20167;-94
2022/01/04 05:47:39;;;;;;;4.33;2.63;;;6.80;99.90;;;;;;5017090;28;20203;-95
2022/01/04 05:50:05;;;;;;;4.77;2.87;;;6.80;99.90;;;;;;5016744;28;20179;-95
2022/01/04 05:52:36;;;;;;;3.27;2.53;;;6.80;99.90;;;;;;5016315;28;20211;-94
2022/01/04 05:55:21;;;;;;;3.57;2.63;;;6.80;99.90;;;;;;5017125;28;20258;-94
2022/01/04 05:57:54;;;;;;;2.40;2.20;;;6.80;99.90;;;;;;5017150;28;20199;-94
2022/01/04 06:00:29;;;;;;;6.07;2.60;;;6.90;99.90;;;;;;5017559;28;20179;-95
2022/01/04 06:03:00;;;;;;;3.90;2.43;;;6.90;99.90;;;;;;5016869;28;20221;-95
2022/01/04 06:05:36;;;;;;;5.00;2.83;;;6.90;99.90;;;;;;5016552;28;20179;-95
2022/01/04 06:08:34;;;;;;;2.33;2.10;;;6.80;99.90;;;;;;5016753;28;20203;-96
2022/01/04 06:11:00;;;;;;;3.70;2.07;;;6.90;99.90;;;;;;5017046;28;20294;-96
2022/01/04 06:16:42;;;;;;;3.87;2.27;;;6.70;99.90;;;;;;5017471;28;20203;-95
2022/01/04 06:19:08;;;;;;;5.50;2.73;;;6.70;99.90;;;;;;5016112;28;20172;-94
2022/01/04 06:21:34;;;;;;;3.47;2.60;;;6.70;99.90;;;;;;5016172;28;20233;-94
2022/01/04 06:24:25;;;;;;;2.93;2.60;;;6.70;99.90;;;;;;5016545;28;20176;-94
2022/01/04 06:26:55;;;;;;;3.50;2.33;;;6.80;99.90;;;;;;5017344;28;20227;-96
2022/01/04 06:29:29;;;;;;;3.80;2.47;;;6.80;99.90;;;;;;5016510;28;20504;-93
2022/01/04 06:31:59;;;;;;;3.77;2.40;;;6.80;99.90;;;;;;5015765;28;20249;-94
2022/01/04 06:34:44;;;;;;;5.03;2.43;;;6.80;99.90;;;;;;5016323;28;20233;-92
2022/01/04 06:37:34;;;;;;;3.90;2.23;;;6.80;99.90;;;;;;5018251;28;20199;-94
2022/01/04 06:40:16;;;;;;;3.67;2.23;;;6.80;99.90;;;;;;5018284;28;20266;-94
2022/01/04 06:42:48;;;;;;;2.30;2.10;;;6.80;99.90;;;;;;5018351;28;20171;-94
2022/01/04 06:45:17;;;;;;;3.37;2.40;;;6.80;99.90;;;;;;5015609;28;20178;-93
2022/01/04 06:47:45;;;;;;;6.10;2.40;;;6.80;99.90;;;;;;5016288;28;20215;-93
2022/01/04 06:50:14;;;;;;;3.80;2.33;;;6.80;99.90;;;;;;5015820;28;20207;-93
2022/01/04 06:52:44;;;;;;;3.83;2.10;;;6.80;99.90;;;;;;5016234;28;20230;-93
2022/01/04 06:55:18;;;;;;;3.57;2.37;;;6.80;99.90;;;;;;5016060;28;20195;-92
2022/01/04 06:57:58;;;;;;;3.20;2.57;;;6.80;99.90;;;;;;5016403;28;20199;-93
2022/01/04 07:00:30;;;;;;;2.67;2.07;;;6.80;99.90;;;;;;5016367;28;20598;-93
2022/01/04 07:02:55;;;;;;;2.20;2.00;;;6.80;99.90;;;;;;5015968;28;20217;-94
2022/01/04 07:05:22;;;;;;;3.90;2.20;;;6.80;99.90;;;;;;5016175;28;20199;-94
2022/01/04 07:07:59;;;;;;;3.00;2.23;;;6.80;99.90;;;;;;5017249;28;20686;-94
2022/01/04 07:10:40;;;;;;;2.67;2.43;;;6.70;99.90;;;;;;5016215;28;20209;-94
2022/01/04 07:13:15;;;;;;;3.43;2.60;;;6.70;99.90;;;;;;5015807;28;20254;-94
2022/01/04 07:15:43;;;;;;;3.17;2.50;;;6.70;99.90;;;;;;5015556;28;20225;-93
2022/01/04 07:18:40;;;;;;;3.90;2.60;;;6.70;99.90;;;;;;5015517;28;20295;-93
2022/01/04 07:21:14;;;;;;;3.07;2.23;;;6.70;99.90;;;;;;5015392;28;20177;-93
2022/01/04 07:23:46;;;;;;;3.73;2.43;;;6.70;99.90;;;;;;5015180;28;20170;-94
2022/01/04 07:26:14;;;;;;;4.27;2.40;;;6.70;99.90;;;;;;5015515;28;20262;-93
2022/01/04 07:28:47;;;;;;;2.87;2.50;;;6.70;99.90;;;;;;5015208;28;20582;-93
2022/01/04 07:31:46;;;;;;;4.30;2.50;;;6.70;99.90;;;;;;5014658;28;20254;-95
2022/01/04 07:34:32;;;;;;;3.90;2.50;;;6.70;99.90;;;;;;5014730;28;20167;-92
2022/01/04 07:36:59;;;;;;;2.70;2.40;;;6.70;99.90;;;;;;5014862;28;20210;-93
2022/01/04 07:39:35;;;;;;;3.27;2.27;;;6.70;99.90;;;;;;5014783;28;20172;-94
2022/01/04 07:42:27;;;;;;;3.00;2.37;;;6.80;99.90;;;;;;5014834;28;20175;-92
2022/01/04 07:44:57;;;;;;;2.67;2.40;;;6.70;99.90;;;;;;5014563;28;20611;-93
2022/01/04 07:47:41;;;;;;;5.07;2.47;;;6.80;99.90;;;;;;5014311;28;20203;-94
2022/01/04 07:50:50;;;;;;;5.07;2.73;;;6.80;99.90;;;;;;5014362;28;20254;-93
2022/01/04 07:53:28;;;;;;;4.03;2.90;;;6.80;99.90;;;;;;5016354;28;20219;-92
2022/01/04 07:56:03;;;;;;;3.87;2.70;;;6.80;99.90;;;;;;5014767;28;20171;-94
2022/01/04 07:58:37;;;;;;;3.70;2.93;;;6.80;99.90;;;;;;5014637;28;20202;-93
2022/01/04 08:01:08;;;;;;;3.77;2.73;;;6.90;99.90;;;;;;5014613;28;20210;-93
2022/01/04 08:03:41;;;;;;;4.07;3.13;;;6.90;99.90;;;;;;5014735;28;20267;-93
2022/01/04 08:06:09;;;;;;;3.83;3.30;;;6.90;99.90;;;;;;5014520;28;20702;-92
2022/01/04 08:08:35;;;;;;;5.33;3.40;;;6.90;99.90;;;;;;5015040;28;20171;-93
2022/01/04 08:11:03;;;;;;;3.80;3.00;;;7.00;99.90;;;;;;5014324;28;20738;-93
2022/01/04 08:13:56;;;;;;;6.50;3.53;;;6.90;99.90;;;;;;5014757;28;20190;-92
2022/01/04 08:16:22;;;;;;;5.87;3.20;;;7.00;99.90;;;;;;5014507;28;20646;-94
2022/01/04 08:19:06;;;;;;;3.87;3.43;;;6.90;99.90;;;;;;5014244;28;20195;-94
2022/01/04 08:21:42;;;;;;;7.67;4.13;;;7.00;99.90;;;;;;5014871;28;20203;-94
2022/01/04 08:24:08;;;;;;;5.23;3.43;;;7.00;99.90;;;;;;5014621;28;20178;-94
2022/01/04 08:26:49;;;;;;;5.03;3.50;;;7.00;99.90;;;;;;5014119;28;20290;-94
2022/01/04 08:29:24;;;;;;;4.33;3.93;;;7.00;99.90;;;;;;5014223;28;20179;-93
2022/01/04 08:31:55;;;;;;;4.77;3.43;;;7.00;99.90;;;;;;5014585;28;20230;-92
2022/01/04 08:34:31;;;;;;;3.97;3.50;;;7.00;99.90;;;;;;5014088;28;20177;-92
2022/01/04 08:36:58;;;;;;;4.83;3.33;;;7.00;99.90;;;;;;5014322;28;20261;-93
2022/01/04 08:39:40;;;;;;;4.90;3.87;;;7.00;99.90;;;;;;5014377;28;20167;-94
2022/01/04 08:42:14;;;;;;;4.17;3.77;;;7.00;99.90;;;;;;5013677;28;20175;-94
2022/01/04 08:44:50;;;;;;;4.20;3.53;;;7.10;99.90;;;;;;5014151;28;20171;-93
2022/01/04 08:47:18;;;;;;;4.97;3.63;;;7.10;99.90;;;;;;5014141;28;20253;-94
2022/01/04 08:49:55;;;;;;;6.77;3.90;;;7.10;99.90;;;;;;5013845;28;20171;-92
2022/01/04 08:52:45;;;;;;;7.93;4.17;;;7.10;99.90;;;;;;5012291;28;20226;-94
2022/01/04 08:55:19;;;;;;;5.03;3.83;;;7.10;99.90;;;;;;5014197;28;20634;-92
2022/01/04 08:57:56;;;;;;;4.73;3.90;;;7.10;99.90;;;;;;5014036;28;20203;-92
2022/01/04 09:00:30;;;;;;;5.20;4.47;;;7.10;99.90;;;;;;5013572;28;20711;-93
2022/01/04 09:03:16;;;;;;;5.70;4.10;;;7.10;99.90;;;;;;5013991;28;20203;-94
2022/01/04 09:05:43;;;;;;;6.40;4.27;;;7.10;99.90;;;;;;5013305;28;20175;-92
2022/01/04 09:08:15;;;;;;;5.57;4.37;;;7.10;99.90;;;;;;5016993;28;20203;-93
2022/01/04 09:10:43;;;;;;;5.77;4.33;;;7.10;99.90;;;;;;5018140;28;20237;-93
2022/01/04 09:13:15;;;;;;;5.93;4.23;;;7.10;99.90;;;;;;5017839;28;20262;-93
2022/01/04 09:20:55;;;;;;;6.37;4.67;;;7.10;99.90;;;;;;5018712;28;20532;-93
2022/01/04 09:23:37;;;;;;;6.23;4.47;;;7.10;99.90;;;;;;5017346;28;20168;-92
2022/01/04 09:26:05;;;;;;;5.53;4.63;;;7.20;99.90;;;;;;5017494;28;20168;-93
2022/01/04 09:28:39;;;;;;;5.33;4.20;;;7.20;99.90;;;;;;5017581;28;20167;-94
2022/01/04 09:31:06;;;;;;;5.07;4.37;;;7.20;99.90;;;;;;5017046;28;20682;-93
2022/01/04 09:33:36;;;;;;;5.83;4.40;;;7.20;99.90;;;;;;5017187;28;20175;-93
2022/01/04 09:36:03;;;;;;;5.30;4.23;;;7.20;99.90;;;;;;5017092;28;20190;-92
2022/01/04 09:38:43;;;;;;;5.70;4.43;;;7.20;99.90;;;;;;5016931;28;20253;-93
2022/01/04 09:41:11;;;;;;;6.07;5.17;;;7.20;99.90;;;;;;5017446;28;20194;-93
2022/01/04 09:43:50;;;;;;;5.93;4.40;;;7.20;99.90;;;;;;5017772;28;20182;-93
2022/01/04 09:46:17;;;;;;;7.87;5.23;;;7.20;99.90;;;;;;5017334;28;20171;-92
2022/01/04 09:48:57;;;;;;;5.67;4.60;;;7.30;99.90;;;;;;5017435;28;20235;-92
2022/01/04 09:51:25;;;;;;;5.57;4.67;;;7.30;99.90;;;;;;5015839;28;20199;-93
2022/01/04 09:54:08;;;;;;;10.13;5.07;;;7.30;99.90;;;;;;5017154;28;20175;-93
2022/01/04 09:56:43;;;;;;;5.77;4.93;;;7.30;99.90;;;;;;5017194;28;20230;-94
2022/01/04 09:59:17;;;;;;;7.60;5.40;;;7.30;99.90;;;;;;5017168;28;20177;-95
2022/01/04 10:02:00;;;;;;;8.53;5.67;;;7.30;99.90;;;;;;5016649;28;20171;-93
2022/01/04 10:04:27;;;;;;;5.97;5.37;;;7.30;99.90;;;;;;5016802;28;20200;-92
2022/01/04 10:07:25;;;;;;;6.30;5.13;;;7.30;99.90;;;;;;5016880;28;20215;-92
2022/01/04 10:10:02;;;;;;;8.93;5.87;;;7.40;99.90;;;;;;5016741;28;20167;-92
2022/01/04 10:12:33;;;;;;;9.30;6.47;;;7.40;99.90;;;;;;5016535;28;20186;-93
2022/01/04 10:14:59;;;;;;;7.83;6.00;;;7.40;99.90;;;;;;5015934;28;20653;-93
2022/01/04 10:17:30;;;;;;;7.90;5.80;;;7.40;99.90;;;;;;5015840;28;20290;-93
2022/01/04 10:20:02;;;;;;;8.70;6.30;;;7.40;99.90;;;;;;5015745;28;20175;-93
2022/01/04 10:22:32;;;;;;;10.97;6.47;;;7.40;99.90;;;;;;5016292;28;20203;-94
2022/01/04 10:25:11;;;;;;;7.90;6.20;;;7.40;99.90;;;;;;5016955;28;20506;-94
2022/01/04 10:27:50;;;;;;;7.60;5.90;;;7.40;99.90;;;;;;5016378;28;20199;-93
2022/01/04 10:30:45;;;;;;;7.70;6.50;;;7.40;99.90;;;;;;5016683;28;20168;-94
2022/01/04 10:33:13;;;;;;;8.07;6.23;;;7.50;99.90;;;;;;5016589;28;20190;-94
2022/01/04 10:35:50;;;;;;;10.50;6.43;;;7.50;99.90;;;;;;5016524;28;20270;-93
2022/01/04 10:38:28;;;;;;;9.47;6.80;;;7.50;99.90;;;;;;5016044;28;20782;-93
2022/01/04 10:41:08;;;;;;;8.47;6.00;;;7.50;99.90;;;;;;5016404;28;20168;-93
2022/01/04 10:44:09;;;;;;;8.20;6.60;;;7.60;99.90;;;;;;5016009;28;20218;-92
2022/01/04 10:46:56;;;;;;;9.40;6.03;;;7.60;99.90;;;;;;5015903;28;20260;-94
2022/01/04 10:49:24;;;;;;;9.57;6.30;;;7.60;99.90;;;;;;5016529;28;20247;-93
2022/01/04 10:52:09;;;;;;;8.23;6.50;;;7.60;99.90;;;;;;5013958;28;20226;-93
2022/01/04 10:54:35;;;;;;;9.63;6.13;;;7.60;99.90;;;;;;5015937;28;20175;-93
2022/01/04 10:57:07;;;;;;;9.80;5.90;;;7.60;99.90;;;;;;5016097;28;20662;-94
2022/01/04 10:59:46;;;;;;;8.37;5.63;;;7.60;99.90;;;;;;5016146;28;20183;-94
2022/01/04 11:02:43;;;;;;;7.70;5.57;;;7.60;99.90;;;;;;5015760;28;20175;-94
2022/01/04 11:05:46;;;;;;;11.93;6.00;;;7.60;99.90;;;;;;5016408;28;20176;-94
2022/01/04 11:08:36;;;;;;;9.80;5.83;;;7.60;99.90;;;;;;5015741;28;20202;-94
2022/01/04 11:11:03;;;;;;;10.67;6.23;;;7.70;99.90;;;;;;5015745;28;20697;-94
2022/01/04 11:13:29;;;;;;;8.63;5.37;;;7.70;99.90;;;;;;5015425;28;20171;-92
2022/01/04 11:16:18;;;;;;;9.10;5.50;;;7.70;99.90;;;;;;5015855;28;20624;-92
2022/01/04 11:18:50;;;;;;;10.30;5.77;;;7.70;99.90;;;;;;5016030;28;20178;-93
2022/01/04 11:21:43;;;;;;;9.97;5.60;;;7.80;99.90;;;;;;5015505;28;20190;-94
2022/01/04 11:24:23;;;;;;;8.37;5.10;;;7.80;99.90;;;;;;5015568;28;20585;-94
2022/01/04 11:27:02;;;;;;;8.70;5.70;;;7.80;99.90;;;;;;5015508;28;20203;-94
2022/01/04 11:29:35;;;;;;;10.10;6.07;;;7.80;99.90;;;;;;5015166;28;20239;-94
2022/01/04 11:32:16;;;;;;;8.93;5.30;;;7.80;99.90;;;;;;5014495;28;20200;-94
2022/01/04 11:35:05;;;;;;;14.77;6.33;;;7.80;99.90;;;;;;5015414;28;20175;-93
2022/01/04 11:37:38;;;;;;;9.27;5.77;;;7.80;99.90;;;;;;5015362;28;20191;-94
2022/01/04 11:43:38;;;;;;;13.37;5.33;;;7.80;99.90;;;;;;5015931;28;20624;-93
2022/01/04 11:46:06;;;;;;;8.20;5.97;;;7.80;99.90;;;;;;5015218;28;20171;-94
2022/01/04 11:48:45;;;;;;;13.03;6.43;;;7.80;99.90;;;;;;5015125;28;20171;-94
2022/01/04 11:51:32;;;;;;;9.97;5.57;;;7.80;99.90;;;;;;5014774;28;20199;-92
2022/01/04 11:54:21;;;;;;;9.53;5.60;;;7.80;99.90;;;;;;5014576;28;20250;-93
2022/01/04 11:57:00;;;;;;;8.97;5.93;;;7.80;99.90;;;;;;5014791;28;20195;-93
2022/01/04 11:59:37;;;;;;;10.77;6.40;;;7.80;99.90;;;;;;5014758;28;20172;-93
2022/01/04 12:02:33;;;;;;;10.50;5.70;;;7.80;99.90;;;;;;5014800;28;20210;-93
2022/01/04 12:05:28;;;;;;;8.53;6.00;;;7.80;99.90;;;;;;5014682;28;20174;-94
2022/01/04 12:07:57;;;;;;;9.00;5.73;;;7.90;99.90;;;;;;5014432;28;20294;-93
2022/01/04 12:10:50;;;;;;;10.50;6.70;;;8.00;99.90;;;;;;5014354;28;20222;-93
2022/01/04 12:14:00;;;;;;;12.57;6.97;;;8.00;99.90;;;;;;5014306;28;20166;-93
2022/01/04 12:16:36;;;;;;;9.43;6.30;;;7.90;99.90;;;;;;5014525;28;20190;-95
2022/01/04 12:19:41;;;;;;;10.40;6.77;;;7.90;99.90;;;;;;5014726;28;20506;-94
2022/01/04 12:25:28;;;;;;;14.33;7.73;;;7.90;99.90;;;;;;5015427;28;20210;-93
2022/01/04 12:28:18;;;;;;;11.83;7.20;;;7.90;99.90;;;;;;5014031;28;20203;-94
2022/01/04 12:30:47;;;;;;;18.20;7.83;;;7.90;99.90;;;;;;5014060;28;20222;-95
2022/01/04 12:36:48;;;;;;;13.73;7.77;;;7.90;99.90;;;;;;4994243;28;20339;-93
2022/01/04 12:39:18;;;;;;;15.10;8.00;;;7.90;99.90;;;;;;4995175;28;20164;-94
2022/01/04 12:41:56;;;;;;;16.07;8.30;;;7.90;99.90;;;;;;5013952;28;20230;-94
2022/01/04 12:44:25;;;;;;;12.03;7.60;;;7.90;99.90;;;;;;5016039;28;20183;-94
2022/01/04 12:46:54;;;;;;;16.50;8.53;;;7.90;99.90;;;;;;5015414;28;20202;-93
2022/01/04 12:49:23;;;;;;;12.63;8.70;;;7.90;99.90;;;;;;5014286;28;20203;-93
2022/01/04 12:51:54;;;;;;;15.90;9.33;;;7.90;99.90;;;;;;5013655;28;20231;-93
2022/01/04 12:54:28;;;;;;;16.37;8.73;;;7.90;99.90;;;;;;5013617;28;20183;-93
2022/01/04 12:56:57;;;;;;;16.67;9.90;;;7.90;99.90;;;;;;5013750;28;20226;-94
2022/01/04 12:59:25;;;;;;;15.53;9.27;;;8.00;99.90;;;;;;5013679;28;20662;-94
2022/01/04 13:02:29;;;;;;;16.63;10.07;;;7.90;99.90;;;;;;5014084;28;20532;-93
2022/01/04 13:05:09;;;;;;;14.63;9.40;;;7.90;99.90;;;;;;5011866;28;20187;-93
2022/01/04 13:07:39;;;;;;;16.73;10.17;;;7.90;99.90;;;;;;5013388;28;20195;-93
2022/01/04 13:10:09;;;;;;;14.80;9.57;;;7.90;99.90;;;;;;5013640;28;20201;-94
2022/01/04 13:12:41;;;;;;;17.20;10.63;;;7.90;99.90;;;;;;5013471;28;20649;-94
2022/01/04 13:15:12;;;;;;;17.80;10.07;;;7.90;99.90;;;;;;5013581;28;20191;-93
2022/01/04 13:17:45;;;;;;;18.47;11.07;;;7.90;99.90;;;;;;5013485;28;20692;-94
2022/01/04 13:20:21;;;;;;;18.73;10.73;;;8.00;99.90;;;;;;5013637;28;20175;-94
2022/01/04 13:22:48;;;;;;;15.53;10.17;;;7.90;99.90;;;;;;5013840;28;20170;-94
2022/01/04 13:25:17;;;;;;;15.67;10.80;;;7.90;99.90;;;;;;5013503;28;20211;-94
2022/01/04 13:27:46;;;;;;;17.57;10.80;;;7.90;99.90;;;;;;5013634;28;20191;-93
2022/01/04 13:30:37;;;;;;;21.90;10.90;;;7.90;99.90;;;;;;5013889;28;20214;-94
2022/01/04 13:33:11;;;;;;;16.73;10.50;;;7.80;99.90;;;;;;5014255;28;20726;-93
2022/01/04 13:35:42;;;;;;;17.13;10.43;;;7.80;99.90;;;;;;5013836;28;20170;-93
2022/01/04 13:38:21;;;;;;;17.50;10.87;;;7.80;99.90;;;;;;5013684;28;20198;-94
2022/01/04 13:40:50;;;;;;;17.23;10.20;;;7.80;99.90;;;;;;5013662;28;20261;-94
2022/01/04 13:43:19;;;;;;;17.53;11.10;;;7.80;99.90;;;;;;5013315;28;20179;-93
2022/01/04 13:46:34;;;;;;;18.13;11.33;;;7.80;99.90;;;;;;5013639;28;20666;-94
2022/01/04 13:49:42;;;;;;;18.27;11.57;;;7.80;99.90;;;;;;5013513;28;20606;-94
2022/01/04 13:52:18;;;;;;;18.93;11.80;;;7.70;99.90;;;;;;5013170;28;20245;-94